sensor_id;sensor_type;location;lat;lon;timestamp;pressure;altitude;pressure_sealevel;temperature;humidity
62051;BME280;48008;51.204;6.766;2022-12-18T00:02:14;102368.28;;;-3.73;80.45
62051;BME280;48008;51.204;6.766;2022-12-18T00:04:40;102381.22;;;-3.71;80.14
62051;BME280;48008;51.204;6.766;2022-12-18T00:07:07;102375.28;;;-3.78;80.42
62051;BME280;48008;51.204;6.766;2022-12-18T00:09:34;102378.88;;;-3.90;80.83
62051;BME280;48008;51.204;6.766;2022-12-18T00:12:00;102388.34;;;-3.86;81.21
62051;BME280;48008;51.204;6.766;2022-12-18T00:14:27;102385.66;;;-3.79;80.15
62051;BME280;48008;51.204;6.766;2022-12-18T00:16:54;102389.16;;;-3.82;80.45
62051;BME280;48008;51.204;6.766;2022-12-18T00:19:20;102396.13;;;-3.86;80.34
62051;BME280;48008;51.204;6.766;2022-12-18T00:21:47;102397.03;;;-3.91;80.80
62051;BME280;48008;51.204;6.766;2022-12-18T00:24:14;102395.13;;;-3.78;80.31
62051;BME280;48008;51.204;6.766;2022-12-18T00:26:42;102396.88;;;-3.79;80.62
62051;BME280;48008;51.204;6.766;2022-12-18T00:29:12;102384.91;;;-3.88;80.57
62051;BME280;48008;51.204;6.766;2022-12-18T00:31:42;102389.25;;;-3.91;80.46
62051;BME280;48008;51.204;6.766;2022-12-18T00:34:11;102387.41;;;-3.81;80.33
62051;BME280;48008;51.204;6.766;2022-12-18T00:36:40;102384.72;;;-3.75;80.02
62051;BME280;48008;51.204;6.766;2022-12-18T00:39:07;102390.75;;;-3.73;79.90
62051;BME280;48008;51.204;6.766;2022-12-18T00:41:34;102396.16;;;-3.87;80.07
62051;BME280;48008;51.204;6.766;2022-12-18T00:44:21;102387.44;;;-3.84;80.71
62051;BME280;48008;51.204;6.766;2022-12-18T00:46:48;102387.41;;;-3.80;80.38
62051;BME280;48008;51.204;6.766;2022-12-18T00:49:19;102387.31;;;-3.74;80.58
62051;BME280;48008;51.204;6.766;2022-12-18T00:51:47;102382.06;;;-3.69;79.93
62051;BME280;48008;51.204;6.766;2022-12-18T00:54:14;102387.16;;;-3.63;79.39
62051;BME280;48008;51.204;6.766;2022-12-18T00:56:41;102391.75;;;-3.82;79.95
62051;BME280;48008;51.204;6.766;2022-12-18T00:59:14;102390.75;;;-3.73;80.09
62051;BME280;48008;51.204;6.766;2022-12-18T01:01:40;102388.16;;;-3.73;80.18
62051;BME280;48008;51.204;6.766;2022-12-18T01:04:07;102384.66;;;-3.69;79.98
62051;BME280;48008;51.204;6.766;2022-12-18T01:06:34;102382.09;;;-3.72;79.66
62051;BME280;48008;51.204;6.766;2022-12-18T01:09:01;102373.53;;;-3.77;80.06
62051;BME280;48008;51.204;6.766;2022-12-18T01:11:28;102364.91;;;-3.78;79.68
62051;BME280;48008;51.204;6.766;2022-12-18T01:13:55;102378.84;;;-3.87;79.94
62051;BME280;48008;51.204;6.766;2022-12-18T01:16:22;102374.50;;;-3.84;80.40
62051;BME280;48008;51.204;6.766;2022-12-18T01:18:52;102380.47;;;-3.78;80.37
62051;BME280;48008;51.204;6.766;2022-12-18T01:21:21;102381.53;;;-3.93;79.93
62051;BME280;48008;51.204;6.766;2022-12-18T01:23:52;102379.66;;;-3.83;79.90
62051;BME280;48008;51.204;6.766;2022-12-18T01:26:20;102375.56;;;-3.99;80.31
62051;BME280;48008;51.204;6.766;2022-12-18T01:28:47;102376.53;;;-4.08;80.16
62051;BME280;48008;51.204;6.766;2022-12-18T01:31:23;102387.53;;;-3.89;79.82
62051;BME280;48008;51.204;6.766;2022-12-18T01:33:51;102386.59;;;-3.83;79.33
62051;BME280;48008;51.204;6.766;2022-12-18T01:36:21;102382.38;;;-3.91;79.69
62051;BME280;48008;51.204;6.766;2022-12-18T01:38:49;102365.97;;;-3.93;79.51
62051;BME280;48008;51.204;6.766;2022-12-18T01:41:20;102375.41;;;-3.89;79.48
62051;BME280;48008;51.204;6.766;2022-12-18T01:43:57;102371.88;;;-3.83;79.34
62051;BME280;48008;51.204;6.766;2022-12-18T01:46:25;102371.97;;;-3.89;79.30
62051;BME280;48008;51.204;6.766;2022-12-18T01:48:57;102379.69;;;-3.84;79.29
62051;BME280;48008;51.204;6.766;2022-12-18T01:51:29;102368.38;;;-3.80;79.43
62051;BME280;48008;51.204;6.766;2022-12-18T01:53:57;102369.34;;;-3.88;79.27
62051;BME280;48008;51.204;6.766;2022-12-18T01:56:25;102370.19;;;-3.86;79.43
62051;BME280;48008;51.204;6.766;2022-12-18T01:59:09;102366.88;;;-3.97;79.26
62051;BME280;48008;51.204;6.766;2022-12-18T02:01:37;102381.41;;;-3.85;79.42
62051;BME280;48008;51.204;6.766;2022-12-18T02:04:24;102379.94;;;-4.05;79.95
62051;BME280;48008;51.204;6.766;2022-12-18T02:07:02;102376.56;;;-4.10;80.52
62051;BME280;48008;51.204;6.766;2022-12-18T02:09:39;102376.47;;;-4.02;79.81
62051;BME280;48008;51.204;6.766;2022-12-18T02:12:18;102372.94;;;-3.98;79.40
62051;BME280;48008;51.204;6.766;2022-12-18T02:17:30;102369.53;;;-4.00;79.21
62051;BME280;48008;51.204;6.766;2022-12-18T02:20:13;102374.66;;;-3.98;79.61
62051;BME280;48008;51.204;6.766;2022-12-18T02:22:58;102373.91;;;-4.03;79.51
62051;BME280;48008;51.204;6.766;2022-12-18T02:25:40;102377.31;;;-4.01;79.19
62051;BME280;48008;51.204;6.766;2022-12-18T02:28:13;102365.34;;;-4.10;78.98
62051;BME280;48008;51.204;6.766;2022-12-18T02:30:45;102366.94;;;-4.00;79.56
62051;BME280;48008;51.204;6.766;2022-12-18T02:33:15;102371.28;;;-4.02;79.18
62051;BME280;48008;51.204;6.766;2022-12-18T02:35:44;102360.28;;;-4.19;79.92
62051;BME280;48008;51.204;6.766;2022-12-18T02:38:12;102355.00;;;-4.13;79.93
62051;BME280;48008;51.204;6.766;2022-12-18T02:40:43;102348.97;;;-4.15;80.27
62051;BME280;48008;51.204;6.766;2022-12-18T02:43:14;102348.84;;;-4.06;79.52
62051;BME280;48008;51.204;6.766;2022-12-18T02:45:47;102349.78;;;-4.10;80.15
62051;BME280;48008;51.204;6.766;2022-12-18T02:48:17;102355.06;;;-4.18;80.70
62051;BME280;48008;51.204;6.766;2022-12-18T02:50:55;102361.88;;;-4.09;80.16
62051;BME280;48008;51.204;6.766;2022-12-18T02:53:34;102357.53;;;-4.07;80.05
62051;BME280;48008;51.204;6.766;2022-12-18T02:56:20;102362.69;;;-4.06;79.69
62051;BME280;48008;51.204;6.766;2022-12-18T02:59:04;102360.88;;;-4.00;80.27
62051;BME280;48008;51.204;6.766;2022-12-18T03:01:59;102354.00;;;-4.03;80.13
62051;BME280;48008;51.204;6.766;2022-12-18T03:04:41;102356.56;;;-4.00;79.58
62051;BME280;48008;51.204;6.766;2022-12-18T03:07:16;102350.47;;;-3.97;79.50
62051;BME280;48008;51.204;6.766;2022-12-18T03:09:49;102346.03;;;-3.89;79.02
62051;BME280;48008;51.204;6.766;2022-12-18T03:12:21;102348.56;;;-3.86;79.13
62051;BME280;48008;51.204;6.766;2022-12-18T03:14:56;102351.25;;;-3.91;78.84
62051;BME280;48008;51.204;6.766;2022-12-18T03:17:27;102352.22;;;-3.99;79.58
62051;BME280;48008;51.204;6.766;2022-12-18T03:20:03;102348.72;;;-3.95;79.95
62051;BME280;48008;51.204;6.766;2022-12-18T03:22:33;102344.44;;;-3.98;79.69
62051;BME280;48008;51.204;6.766;2022-12-18T03:25:05;102341.72;;;-3.89;79.58
62051;BME280;48008;51.204;6.766;2022-12-18T03:27:37;102336.56;;;-3.93;79.44
62051;BME280;48008;51.204;6.766;2022-12-18T03:30:10;102329.69;;;-3.94;79.01
62051;BME280;48008;51.204;6.766;2022-12-18T03:32:44;102321.97;;;-4.00;79.72
62051;BME280;48008;51.204;6.766;2022-12-18T03:35:17;102327.94;;;-3.94;79.45
62051;BME280;48008;51.204;6.766;2022-12-18T03:37:45;102336.59;;;-3.95;79.91
62051;BME280;48008;51.204;6.766;2022-12-18T03:40:12;102325.34;;;-3.94;79.76
62051;BME280;48008;51.204;6.766;2022-12-18T03:42:48;102339.38;;;-4.06;80.01
62051;BME280;48008;51.204;6.766;2022-12-18T03:45:37;102343.63;;;-4.01;79.46
62051;BME280;48008;51.204;6.766;2022-12-18T03:48:16;102341.13;;;-4.09;79.87
62051;BME280;48008;51.204;6.766;2022-12-18T03:50:54;102337.53;;;-3.99;79.89
62051;BME280;48008;51.204;6.766;2022-12-18T03:54:13;102330.56;;;-3.95;80.44
62051;BME280;48008;51.204;6.766;2022-12-18T03:56:37;102328.94;;;-4.02;80.15
62051;BME280;48008;51.204;6.766;2022-12-18T03:59:10;102321.94;;;-3.96;80.32
62051;BME280;48008;51.204;6.766;2022-12-18T04:01:42;102317.59;;;-3.95;80.38
62051;BME280;48008;51.204;6.766;2022-12-18T04:04:15;102323.59;;;-3.92;79.78
62051;BME280;48008;51.204;6.766;2022-12-18T04:06:45;102325.22;;;-3.86;79.62
62051;BME280;48008;51.204;6.766;2022-12-18T04:09:14;102318.41;;;-3.93;80.21
62051;BME280;48008;51.204;6.766;2022-12-18T04:11:46;102314.94;;;-3.91;79.75
62051;BME280;48008;51.204;6.766;2022-12-18T04:14:14;102315.78;;;-3.90;79.78
62051;BME280;48008;51.204;6.766;2022-12-18T04:16:43;102308.81;;;-3.87;79.49
62051;BME280;48008;51.204;6.766;2022-12-18T04:19:13;102322.59;;;-3.83;79.60
62051;BME280;48008;51.204;6.766;2022-12-18T04:21:42;102313.09;;;-3.82;79.27
62051;BME280;48008;51.204;6.766;2022-12-18T04:24:10;102310.47;;;-3.81;79.42
62051;BME280;48008;51.204;6.766;2022-12-18T04:26:41;102310.59;;;-3.89;79.51
62051;BME280;48008;51.204;6.766;2022-12-18T04:29:13;102309.00;;;-3.99;79.87
62051;BME280;48008;51.204;6.766;2022-12-18T04:31:39;102310.72;;;-3.96;79.83
62051;BME280;48008;51.204;6.766;2022-12-18T04:34:06;102310.56;;;-3.86;79.73
62051;BME280;48008;51.204;6.766;2022-12-18T04:36:39;102320.03;;;-3.86;79.35
62051;BME280;48008;51.204;6.766;2022-12-18T04:39:06;102309.69;;;-3.88;79.77
62051;BME280;48008;51.204;6.766;2022-12-18T04:41:33;102313.16;;;-3.86;79.51
62051;BME280;48008;51.204;6.766;2022-12-18T04:44:01;102300.25;;;-3.92;80.23
62051;BME280;48008;51.204;6.766;2022-12-18T04:46:27;102307.09;;;-3.86;79.92
62051;BME280;48008;51.204;6.766;2022-12-18T04:48:54;102308.00;;;-3.90;79.36
62051;BME280;48008;51.204;6.766;2022-12-18T04:51:21;102301.88;;;-3.84;79.67
62051;BME280;48008;51.204;6.766;2022-12-18T04:53:51;102308.00;;;-3.90;79.65
62051;BME280;48008;51.204;6.766;2022-12-18T04:56:18;102305.59;;;-4.02;80.31
62051;BME280;48008;51.204;6.766;2022-12-18T04:58:46;102300.34;;;-3.96;80.49
62051;BME280;48008;51.204;6.766;2022-12-18T05:01:14;102294.28;;;-3.97;80.56
62051;BME280;48008;51.204;6.766;2022-12-18T05:03:41;102294.34;;;-4.00;80.21
62051;BME280;48008;51.204;6.766;2022-12-18T05:06:09;102285.69;;;-4.00;80.61
62051;BME280;48008;51.204;6.766;2022-12-18T05:08:36;102270.09;;;-3.99;79.92
62051;BME280;48008;51.204;6.766;2022-12-18T05:11:06;102285.66;;;-3.97;80.46
62051;BME280;48008;51.204;6.766;2022-12-18T05:13:34;102285.63;;;-3.96;79.84
62051;BME280;48008;51.204;6.766;2022-12-18T05:16:02;102291.63;;;-3.92;79.68
62051;BME280;48008;51.204;6.766;2022-12-18T05:18:29;102295.19;;;-3.99;80.19
62051;BME280;48008;51.204;6.766;2022-12-18T05:20:57;102293.41;;;-3.96;79.50
62051;BME280;48008;51.204;6.766;2022-12-18T05:23:24;102286.44;;;-3.92;79.72
62051;BME280;48008;51.204;6.766;2022-12-18T05:25:53;102288.22;;;-3.96;79.62
62051;BME280;48008;51.204;6.766;2022-12-18T05:28:21;102283.91;;;-3.98;79.96
62051;BME280;48008;51.204;6.766;2022-12-18T05:30:49;102283.03;;;-3.96;79.85
62051;BME280;48008;51.204;6.766;2022-12-18T05:33:18;102294.41;;;-4.05;79.96
62051;BME280;48008;51.204;6.766;2022-12-18T05:35:51;102297.00;;;-4.05;79.87
62051;BME280;48008;51.204;6.766;2022-12-18T05:38:20;102304.66;;;-3.98;79.83
62051;BME280;48008;51.204;6.766;2022-12-18T05:40:49;102306.47;;;-4.02;79.96
62051;BME280;48008;51.204;6.766;2022-12-18T05:43:16;102313.31;;;-3.98;80.55
62051;BME280;48008;51.204;6.766;2022-12-18T05:45:47;102312.50;;;-4.00;80.63
62051;BME280;48008;51.204;6.766;2022-12-18T05:48:15;102314.31;;;-4.08;81.19
62051;BME280;48008;51.204;6.766;2022-12-18T05:50:44;102316.06;;;-4.07;81.04
62051;BME280;48008;51.204;6.766;2022-12-18T05:53:13;102316.88;;;-4.03;81.26
62051;BME280;48008;51.204;6.766;2022-12-18T05:55:41;102324.66;;;-4.07;81.26
62051;BME280;48008;51.204;6.766;2022-12-18T05:58:09;102335.03;;;-4.07;81.34
62051;BME280;48008;51.204;6.766;2022-12-18T06:00:40;102335.00;;;-4.02;81.14
62051;BME280;48008;51.204;6.766;2022-12-18T06:03:07;102336.81;;;-4.09;81.92
62051;BME280;48008;51.204;6.766;2022-12-18T06:05:36;102342.78;;;-4.03;81.75
62051;BME280;48008;51.204;6.766;2022-12-18T06:08:03;102345.38;;;-4.02;81.49
62051;BME280;48008;51.204;6.766;2022-12-18T06:10:31;102354.63;;;-3.86;80.66
62051;BME280;48008;51.204;6.766;2022-12-18T06:12:58;102362.44;;;-3.87;79.93
62051;BME280;48008;51.204;6.766;2022-12-18T06:15:25;102362.50;;;-3.93;80.83
62051;BME280;48008;51.204;6.766;2022-12-18T06:17:51;102355.00;;;-4.13;80.38
62051;BME280;48008;51.204;6.766;2022-12-18T06:20:18;102356.91;;;-4.28;81.63
62051;BME280;48008;51.204;6.766;2022-12-18T06:22:45;102359.34;;;-4.15;81.36
62051;BME280;48008;51.204;6.766;2022-12-18T06:25:12;102358.50;;;-4.16;81.16
62051;BME280;48008;51.204;6.766;2022-12-18T06:27:39;102364.47;;;-4.09;80.86
62051;BME280;48008;51.204;6.766;2022-12-18T06:30:07;102354.03;;;-4.06;80.85
62051;BME280;48008;51.204;6.766;2022-12-18T06:32:34;102350.69;;;-4.13;80.80
62051;BME280;48008;51.204;6.766;2022-12-18T06:35:01;102344.81;;;-4.26;81.38
62051;BME280;48008;51.204;6.766;2022-12-18T06:37:28;102341.13;;;-4.09;80.92
62051;BME280;48008;51.204;6.766;2022-12-18T06:39:55;102336.84;;;-4.12;80.81
62051;BME280;48008;51.204;6.766;2022-12-18T06:42:23;102324.84;;;-4.20;81.00
62051;BME280;48008;51.204;6.766;2022-12-18T06:44:50;102332.63;;;-4.20;81.01
62051;BME280;48008;51.204;6.766;2022-12-18T06:47:18;102327.50;;;-4.22;80.91
62051;BME280;48008;51.204;6.766;2022-12-18T06:49:44;102331.88;;;-4.29;80.68
62051;BME280;48008;51.204;6.766;2022-12-18T06:52:11;102319.75;;;-4.27;80.75
62051;BME280;48008;51.204;6.766;2022-12-18T06:54:38;102305.13;;;-4.31;80.88
62051;BME280;48008;51.204;6.766;2022-12-18T06:57:04;102299.81;;;-4.20;80.51
62051;BME280;48008;51.204;6.766;2022-12-18T06:59:31;102306.81;;;-4.28;81.20
62051;BME280;48008;51.204;6.766;2022-12-18T07:01:59;102311.19;;;-4.32;81.22
62051;BME280;48008;51.204;6.766;2022-12-18T07:04:29;102311.97;;;-4.27;80.76
62051;BME280;48008;51.204;6.766;2022-12-18T07:06:56;102310.31;;;-4.31;81.23
62051;BME280;48008;51.204;6.766;2022-12-18T07:09:24;102306.06;;;-4.36;81.13
62051;BME280;48008;51.204;6.766;2022-12-18T07:11:50;102311.28;;;-4.39;81.21
62051;BME280;48008;51.204;6.766;2022-12-18T07:14:17;102311.31;;;-4.41;81.45
62051;BME280;48008;51.204;6.766;2022-12-18T07:16:44;102306.16;;;-4.44;81.23
62051;BME280;48008;51.204;6.766;2022-12-18T07:19:10;102317.34;;;-4.40;81.62
62051;BME280;48008;51.204;6.766;2022-12-18T07:21:37;102312.09;;;-4.36;81.48
62051;BME280;48008;51.204;6.766;2022-12-18T07:24:04;102309.59;;;-4.42;81.52
62051;BME280;48008;51.204;6.766;2022-12-18T07:26:31;102310.34;;;-4.32;81.57
62051;BME280;48008;51.204;6.766;2022-12-18T07:28:59;102305.03;;;-4.23;80.94
62051;BME280;48008;51.204;6.766;2022-12-18T07:31:26;102308.47;;;-4.22;80.58
62051;BME280;48008;51.204;6.766;2022-12-18T07:33:53;102310.06;;;-4.12;80.31
62051;BME280;48008;51.204;6.766;2022-12-18T07:36:23;102298.94;;;-4.20;80.13
62051;BME280;48008;51.204;6.766;2022-12-18T07:38:50;102294.47;;;-4.09;79.92
62051;BME280;48008;51.204;6.766;2022-12-18T07:41:18;102288.34;;;-4.03;79.95
62051;BME280;48008;51.204;6.766;2022-12-18T07:43:45;102296.13;;;-4.05;79.77
62051;BME280;48008;51.204;6.766;2022-12-18T07:46:13;102297.00;;;-4.05;79.74
62051;BME280;48008;51.204;6.766;2022-12-18T07:48:41;102294.53;;;-4.14;80.19
62051;BME280;48008;51.204;6.766;2022-12-18T07:51:12;102291.94;;;-4.14;80.32
62051;BME280;48008;51.204;6.766;2022-12-18T07:53:40;102299.47;;;-3.98;79.55
62051;BME280;48008;51.204;6.766;2022-12-18T07:56:10;102299.53;;;-4.01;79.30
62051;BME280;48008;51.204;6.766;2022-12-18T07:58:51;102295.06;;;-3.90;79.16
62051;BME280;48008;51.204;6.766;2022-12-18T08:01:18;102291.53;;;-3.86;79.58
62051;BME280;48008;51.204;6.766;2022-12-18T08:03:45;102274.28;;;-3.89;79.45
62051;BME280;48008;51.204;6.766;2022-12-18T08:06:12;102259.44;;;-3.80;79.37
62051;BME280;48008;51.204;6.766;2022-12-18T08:08:39;102261.06;;;-3.73;78.86
62051;BME280;48008;51.204;6.766;2022-12-18T08:11:07;102261.19;;;-3.79;79.35
62051;BME280;48008;51.204;6.766;2022-12-18T08:13:34;102269.59;;;-3.67;78.43
62051;BME280;48008;51.204;6.766;2022-12-18T08:16:03;102260.88;;;-3.62;78.51
62051;BME280;48008;51.204;6.766;2022-12-18T08:18:33;102256.63;;;-3.67;78.36
62051;BME280;48008;51.204;6.766;2022-12-18T08:21:17;102248.84;;;-3.67;78.64
62051;BME280;48008;51.204;6.766;2022-12-18T08:23:44;102241.75;;;-3.57;78.07
62051;BME280;48008;51.204;6.766;2022-12-18T08:26:12;102245.16;;;-3.53;78.05
62051;BME280;48008;51.204;6.766;2022-12-18T08:28:39;102242.53;;;-3.50;77.90
62051;BME280;48008;51.204;6.766;2022-12-18T08:31:06;102243.97;;;-3.34;77.22
62051;BME280;48008;51.204;6.766;2022-12-18T08:33:34;102239.72;;;-3.38;77.30
62051;BME280;48008;51.204;6.766;2022-12-18T08:36:02;102241.25;;;-3.28;77.33
62051;BME280;48008;51.204;6.766;2022-12-18T08:38:29;102241.22;;;-3.26;76.57
62051;BME280;48008;51.204;6.766;2022-12-18T08:41:04;102249.81;;;-3.22;76.34
62051;BME280;48008;51.204;6.766;2022-12-18T08:43:32;102241.88;;;-3.15;76.12
62051;BME280;48008;51.204;6.766;2022-12-18T08:46:20;102243.56;;;-3.12;76.42
62051;BME280;48008;51.204;6.766;2022-12-18T08:48:49;102240.72;;;-2.98;75.99
62051;BME280;48008;51.204;6.766;2022-12-18T08:51:16;102238.94;;;-2.96;75.56
62051;BME280;48008;51.204;6.766;2022-12-18T08:53:43;102240.81;;;-3.04;75.63
62051;BME280;48008;51.204;6.766;2022-12-18T08:56:11;102237.34;;;-3.03;75.96
62051;BME280;48008;51.204;6.766;2022-12-18T08:58:38;102229.34;;;-2.93;76.09
62051;BME280;48008;51.204;6.766;2022-12-18T09:01:07;102242.19;;;-2.86;75.88
62051;BME280;48008;51.204;6.766;2022-12-18T09:03:35;102240.19;;;-2.74;75.69
62051;BME280;48008;51.204;6.766;2022-12-18T09:06:03;102242.72;;;-2.69;75.35
62051;BME280;48008;51.204;6.766;2022-12-18T09:08:30;102245.16;;;-2.61;74.99
62051;BME280;48008;51.204;6.766;2022-12-18T09:10:57;102229.25;;;-2.47;74.61
62051;BME280;48008;51.204;6.766;2022-12-18T09:13:24;102224.94;;;-2.48;74.98
62051;BME280;48008;51.204;6.766;2022-12-18T09:15:53;102227.44;;;-2.44;74.72
62051;BME280;48008;51.204;6.766;2022-12-18T09:18:21;102225.41;;;-2.31;74.68
62051;BME280;48008;51.204;6.766;2022-12-18T09:20:49;102227.31;;;-2.38;74.43
62051;BME280;48008;51.204;6.766;2022-12-18T09:23:18;102227.06;;;-2.27;74.39
62051;BME280;48008;51.204;6.766;2022-12-18T09:25:45;102227.81;;;-2.22;73.86
62051;BME280;48008;51.204;6.766;2022-12-18T09:28:17;102235.22;;;-2.05;73.30
62051;BME280;48008;51.204;6.766;2022-12-18T09:30:45;102231.06;;;-2.12;73.34
62051;BME280;48008;51.204;6.766;2022-12-18T09:33:12;102224.03;;;-2.08;72.98
62051;BME280;48008;51.204;6.766;2022-12-18T09:35:40;102215.66;;;-2.21;73.66
62051;BME280;48008;51.204;6.766;2022-12-18T09:38:11;102205.09;;;-2.14;73.61
62051;BME280;48008;51.204;6.766;2022-12-18T09:40:43;102201.28;;;-2.00;73.18
62051;BME280;48008;51.204;6.766;2022-12-18T09:43:17;102194.34;;;-1.98;72.97
62051;BME280;48008;51.204;6.766;2022-12-18T09:45:47;102191.31;;;-1.81;72.78
62051;BME280;48008;51.204;6.766;2022-12-18T09:48:22;102184.22;;;-1.76;71.91
62051;BME280;48008;51.204;6.766;2022-12-18T09:50:51;102209.38;;;-1.77;72.54
62051;BME280;48008;51.204;6.766;2022-12-18T09:53:25;102204.13;;;-1.75;71.19
62051;BME280;48008;51.204;6.766;2022-12-18T09:55:54;102209.03;;;-1.63;71.27
62051;BME280;48008;51.204;6.766;2022-12-18T09:58:45;102193.41;;;-1.63;71.29
62051;BME280;48008;51.204;6.766;2022-12-18T10:01:18;102183.72;;;-1.56;70.62
62051;BME280;48008;51.204;6.766;2022-12-18T10:03:47;102189.72;;;-1.54;70.46
62051;BME280;48008;51.204;6.766;2022-12-18T10:06:38;102187.66;;;-1.41;70.16
62051;BME280;48008;51.204;6.766;2022-12-18T10:12:17;102180.19;;;-1.22;68.75
62051;BME280;48008;51.204;6.766;2022-12-18T10:15:12;102178.13;;;-1.42;69.04
62051;BME280;48008;51.204;6.766;2022-12-18T10:20:44;102165.31;;;-1.19;68.09
62051;BME280;48008;51.204;6.766;2022-12-18T10:26:18;102172.59;;;-1.00;67.59
62051;BME280;48008;51.204;6.766;2022-12-18T10:28:45;102179.50;;;-0.98;67.86
62051;BME280;48008;51.204;6.766;2022-12-18T10:31:16;102177.56;;;-0.91;67.54
62051;BME280;48008;51.204;6.766;2022-12-18T10:33:44;102169.09;;;-0.69;66.47
62051;BME280;48008;51.204;6.766;2022-12-18T10:36:11;102160.91;;;-0.57;66.74
62051;BME280;48008;51.204;6.766;2022-12-18T10:38:38;102162.03;;;-0.66;67.32
62051;BME280;48008;51.204;6.766;2022-12-18T10:41:22;102149.44;;;-0.80;66.99
62051;BME280;48008;51.204;6.766;2022-12-18T10:44:26;102148.59;;;-0.52;66.23
62051;BME280;48008;51.204;6.766;2022-12-18T10:46:55;102144.09;;;-0.47;65.99
62051;BME280;48008;51.204;6.766;2022-12-18T10:49:32;102147.69;;;-0.51;66.25
62051;BME280;48008;51.204;6.766;2022-12-18T10:52:18;102142.69;;;-0.30;65.55
62051;BME280;48008;51.204;6.766;2022-12-18T10:54:49;102140.75;;;-0.24;65.06
62051;BME280;48008;51.204;6.766;2022-12-18T10:57:29;102132.56;;;0.12;63.28
62051;BME280;48008;51.204;6.766;2022-12-18T10:59:58;102127.22;;;0.17;63.06
62051;BME280;48008;51.204;6.766;2022-12-18T11:02:40;102128.78;;;0.21;62.90
62051;BME280;48008;51.204;6.766;2022-12-18T11:05:38;102127.03;;;0.47;62.37
62051;BME280;48008;51.204;6.766;2022-12-18T11:07:54;102108.44;;;0.31;61.33
62051;BME280;48008;51.204;6.766;2022-12-18T11:10:26;102110.94;;;0.34;61.72
62051;BME280;48008;51.204;6.766;2022-12-18T11:12:54;102122.94;;;0.40;62.41
62051;BME280;48008;51.204;6.766;2022-12-18T11:15:26;102122.78;;;0.68;61.12
62051;BME280;48008;51.204;6.766;2022-12-18T11:17:54;102114.38;;;0.83;60.58
62051;BME280;48008;51.204;6.766;2022-12-18T11:20:31;102112.94;;;0.74;60.51
62051;BME280;48008;51.204;6.766;2022-12-18T11:23:01;102116.31;;;0.78;60.54
62051;BME280;48008;51.204;6.766;2022-12-18T11:25:30;102121.47;;;0.80;61.02
62051;BME280;48008;51.204;6.766;2022-12-18T11:28:03;102121.53;;;0.78;61.13
62051;BME280;48008;51.204;6.766;2022-12-18T11:30:34;102100.53;;;0.81;60.80
62051;BME280;48008;51.204;6.766;2022-12-18T11:33:06;102084.91;;;0.80;60.81
62051;BME280;48008;51.204;6.766;2022-12-18T11:35:47;102089.97;;;0.61;61.35
62051;BME280;48008;51.204;6.766;2022-12-18T11:38:26;102085.50;;;0.64;60.94
62051;BME280;48008;51.204;6.766;2022-12-18T11:41:02;102094.91;;;0.45;61.66
62051;BME280;48008;51.204;6.766;2022-12-18T11:43:37;102083.06;;;0.34;61.74
62051;BME280;48008;51.204;6.766;2022-12-18T11:46:11;102077.25;;;0.03;62.69
62051;BME280;48008;51.204;6.766;2022-12-18T11:49:02;102076.28;;;0.05;63.74
62051;BME280;48008;51.204;6.766;2022-12-18T11:51:38;102076.97;;;-0.15;63.78
62051;BME280;48008;51.204;6.766;2022-12-18T11:54:15;102079.78;;;-0.21;63.88
62051;BME280;48008;51.204;6.766;2022-12-18T11:56:55;102077.75;;;-0.13;64.05
62051;BME280;48008;51.204;6.766;2022-12-18T11:59:36;102077.19;;;-0.21;64.68
62051;BME280;48008;51.204;6.766;2022-12-18T12:08:01;102067.22;;;-0.10;64.43
62051;BME280;48008;51.204;6.766;2022-12-18T12:14:23;102061.34;;;-0.16;64.82
62051;BME280;48008;51.204;6.766;2022-12-18T12:16:37;102061.47;;;-0.20;64.55
62051;BME280;48008;51.204;6.766;2022-12-18T12:22:29;102048.13;;;-0.10;65.59
62051;BME280;48008;51.204;6.766;2022-12-18T12:25:37;102037.59;;;-0.07;65.32
62051;BME280;48008;51.204;6.766;2022-12-18T12:31:03;102041.97;;;-0.09;64.96
62051;BME280;48008;51.204;6.766;2022-12-18T12:34:25;102045.59;;;-0.13;65.97
62051;BME280;48008;51.204;6.766;2022-12-18T12:39:46;102033.44;;;0.11;65.21
62051;BME280;48008;51.204;6.766;2022-12-18T12:42:23;102025.75;;;-0.17;65.59
62051;BME280;48008;51.204;6.766;2022-12-18T12:45:23;102024.47;;;-0.06;65.85
62051;BME280;48008;51.204;6.766;2022-12-18T12:47:54;102024.09;;;0.05;65.55
62051;BME280;48008;51.204;6.766;2022-12-18T12:50:21;102038.16;;;0.01;65.21
62051;BME280;48008;51.204;6.766;2022-12-18T12:52:52;102044.97;;;0.05;65.05
62051;BME280;48008;51.204;6.766;2022-12-18T12:55:22;102042.53;;;0.01;65.62
62051;BME280;48008;51.204;6.766;2022-12-18T13:01:04;102037.22;;;-0.22;66.69
62051;BME280;48008;51.204;6.766;2022-12-18T13:03:52;102027.63;;;-0.21;65.72
62051;BME280;48008;51.204;6.766;2022-12-18T13:07:06;102013.75;;;-0.22;66.14
62051;BME280;48008;51.204;6.766;2022-12-18T13:09:20;102016.94;;;-0.40;66.12
62051;BME280;48008;51.204;6.766;2022-12-18T13:11:49;102028.22;;;-0.38;66.02
62051;BME280;48008;51.204;6.766;2022-12-18T13:14:38;102018.41;;;-0.31;66.52
62051;BME280;48008;51.204;6.766;2022-12-18T13:17:26;102016.81;;;-0.35;66.45
62051;BME280;48008;51.204;6.766;2022-12-18T13:20:06;102007.81;;;-0.27;66.16
62051;BME280;48008;51.204;6.766;2022-12-18T13:22:42;102003.22;;;-0.20;66.58
62051;BME280;48008;51.204;6.766;2022-12-18T13:25:31;101997.97;;;-0.44;66.24
62051;BME280;48008;51.204;6.766;2022-12-18T13:28:09;101994.50;;;-0.44;66.39
62051;BME280;48008;51.204;6.766;2022-12-18T13:36:00;101977.50;;;-0.54;66.50
62051;BME280;48008;51.204;6.766;2022-12-18T13:41:27;101970.00;;;-0.64;66.61
62051;BME280;48008;51.204;6.766;2022-12-18T13:43:55;101969.31;;;-0.70;66.28
62051;BME280;48008;51.204;6.766;2022-12-18T13:46:27;101970.59;;;-0.57;66.12
62051;BME280;48008;51.204;6.766;2022-12-18T13:49:02;101966.75;;;-0.45;66.32
62051;BME280;48008;51.204;6.766;2022-12-18T13:51:33;101970.19;;;-0.45;65.89
62051;BME280;48008;51.204;6.766;2022-12-18T13:54:02;101963.34;;;-0.47;65.38
62051;BME280;48008;51.204;6.766;2022-12-18T13:56:33;101963.16;;;-0.43;65.30